Flight Briefing for CMB837

Departure Arrival
Joint Base McGuire Dix Lakehurst (KWRI)
Click to view FAA NOTAMS
Ramstein Air Force Base (ETAR)
Click to view FAA NOTAMS
Departure Time Arrival Time
N/A N/A
Aircraft Distance
B767-300BDSF 3379nm
Departure METAR Arrival METAR
KWRI 200756Z AUTO 00000KT 10SM CLR M02/M03 A3037 RMK AO2 SLP285 T10181026 ETAR 200856Z AUTO 00000KT 9999 CLR 05/M01 A3055 RMK AO2 SLPNO T00541013 52011 $
Suggested Route
PTPL5 SHLEP HTO WHALE N135A PORTI NATW ATSUR GAPLI UN20 SAM UM140 DVR UL9 KONAN UL607 SPI UT180 PESOV T180 NIVNU T847 SIPVU T847 OLIVI Q762 XIDOD


View recent IFR Routes data
Notes
USTRANSCOM CONTRACT FLIGHT

Charts and Procedures

Charts for KWRI
No chart available
Charts for ETAR
No chart available

Windy.com Weather Map